PAOU

Details ICAO PAOU (NLG)
Name NELSON LAGOON
Region USA (Alaska)
Timezone America/Anchorage (UTC-8.0)
Plans Departing 4
Arriving 3
Stats Elevation 14 ft / 4 m (AMSL)
Location 56.007536° -161.160367°
Runways 1
Magnetic Variation 11.345° E
Sunrise 2018-05-20 14:23:52 UTC / 2018-05-20 06:23:52 Local
Sunset 2018-05-21 07:01:22 UTC / 2018-05-20 23:01:22 Local
Advertisement - Login to hide

Runways

ID Width Length Bearing (true) Bearing (mag) Surface Threshold Offset Overrun Length
08 75 ft / 23 m 3,990 ft / 1,216 m 96.06° 84.71° Gravel 0 ft / 0 m 0 ft / 0 m
26 75 ft / 23 m 3,990 ft / 1,216 m 276.08° 264.73° Gravel 0 ft / 0 m 0 ft / 0 m

Map

Weather


0- 5 10 15 20 25 30 35+ Temperature / ° C

Clouds and Precipitation
Forecast for 2018-05-20 18:00 UTC. Updated an hour ago

Ground ~20,000 ft ~40,000 ft Winds

METAR

PAOU 201556Z AUTO 02006KT 10SM FEW049 BKN075 OVC100 06/04 A2941 RMK AO2 SLP960 T00610044

TAF

Not found

Frequencies

Recorded 119.02 MHz ASOS
Unicom 122.90 MHz CTAF
Warning: Do not use this data for real-world aviation or navigation. No guarantee of current accuracy is given.